createdAt,value
2022-10-28T00:01:48.355Z,0.57
2022-10-28T00:04:17.867Z,0.67
2022-10-28T00:06:47.282Z,0.50
2022-10-28T00:09:16.734Z,0.63
2022-10-28T00:11:46.179Z,0.70
2022-10-28T00:14:15.635Z,0.80
2022-10-28T00:16:45.141Z,0.60
2022-10-28T00:19:16.028Z,0.70
2022-10-28T00:21:46.115Z,0.67
2022-10-28T00:24:17.971Z,0.53
2022-10-28T00:26:47.418Z,0.70
2022-10-28T00:29:20.483Z,0.70
2022-10-28T00:31:50.868Z,0.53
2022-10-28T00:34:22.627Z,0.70
2022-10-28T00:36:52.141Z,0.70
2022-10-28T00:39:24.965Z,0.70
2022-10-28T00:42:02.234Z,0.80
2022-10-28T00:44:58.992Z,0.50
2022-10-28T00:47:53.432Z,0.50
2022-10-28T00:50:48.607Z,0.70
2022-10-28T00:53:33.488Z,0.70
2022-10-28T00:56:05.341Z,0.60
2022-10-28T00:58:35.400Z,0.50
2022-10-28T01:01:04.985Z,0.40
2022-10-28T01:03:34.679Z,0.70
2022-10-28T01:06:04.466Z,0.60
2022-10-28T01:08:34.291Z,0.60
2022-10-28T01:11:29.418Z,0.70
2022-10-28T01:14:15.128Z,0.57
2022-10-28T01:16:57.632Z,0.60
2022-10-28T01:20:07.733Z,0.70
2022-10-28T01:22:59.846Z,0.60
2022-10-28T01:25:39.632Z,0.60
2022-10-28T01:28:39.300Z,0.50
2022-10-28T01:31:22.196Z,0.60
2022-10-28T01:34:13.520Z,0.57
2022-10-28T01:37:02.335Z,0.57
2022-10-28T01:39:47.594Z,0.40
2022-10-28T01:42:54.906Z,0.60
2022-10-28T01:45:40.721Z,0.63
2022-10-28T01:48:32.842Z,0.80
2022-10-28T01:51:22.033Z,0.80
2022-10-28T01:53:56.265Z,0.73
2022-10-28T01:56:30.309Z,0.60
2022-10-28T01:59:04.171Z,0.80
2022-10-28T02:01:35.116Z,0.50
2022-10-28T02:04:05.473Z,0.80
2022-10-28T02:06:35.743Z,0.70
2022-10-28T02:09:12.740Z,0.67
2022-10-28T02:12:18.109Z,0.70
2022-10-28T02:15:04.200Z,0.60
2022-10-28T02:18:01.943Z,0.50
2022-10-28T02:20:38.663Z,0.67
2022-10-28T02:23:24.296Z,0.70
2022-10-28T02:26:14.896Z,0.70
2022-10-28T02:29:09.706Z,0.63
2022-10-28T02:31:43.765Z,0.57
2022-10-28T02:34:20.737Z,0.80
2022-10-28T02:36:54.811Z,0.77
2022-10-28T02:39:28.866Z,0.40
2022-10-28T02:42:19.501Z,0.63
2022-10-28T02:44:53.823Z,0.50
2022-10-28T02:47:28.749Z,0.70
2022-10-28T02:50:02.805Z,0.70
2022-10-28T02:52:34.475Z,0.70
2022-10-28T02:55:07.541Z,0.53
2022-10-28T02:57:41.330Z,0.57
2022-10-28T03:00:15.547Z,0.60
2022-10-28T03:02:45.067Z,0.60
2022-10-28T03:05:14.510Z,0.60
2022-10-28T03:07:44.142Z,0.60
2022-10-28T03:10:13.581Z,0.70
2022-10-28T03:12:43.050Z,0.60
2022-10-28T03:15:12.860Z,0.73
2022-10-28T03:17:42.384Z,0.63
2022-10-28T03:20:12.621Z,0.80
2022-10-28T03:22:46.553Z,0.77
2022-10-28T03:25:16.063Z,0.60
2022-10-28T03:27:45.522Z,0.60
2022-10-28T03:30:14.967Z,0.40
2022-10-28T03:32:44.509Z,0.50
2022-10-28T03:35:14.021Z,0.70
2022-10-28T03:37:45.285Z,0.47
2022-10-28T03:40:15.163Z,0.67
2022-10-28T03:42:44.618Z,0.90
2022-10-28T03:45:14.056Z,0.70
2022-10-28T03:47:43.600Z,0.70
2022-10-28T03:50:13.039Z,0.67
2022-10-28T03:52:44.709Z,0.70
2022-10-28T03:55:14.144Z,0.60
2022-10-28T03:57:43.676Z,0.57
2022-10-28T04:00:13.869Z,0.50
2022-10-28T04:02:43.355Z,0.47
2022-10-28T04:05:12.797Z,0.60
2022-10-28T04:07:42.247Z,0.60
2022-10-28T04:10:12.593Z,0.63
2022-10-28T04:12:42.050Z,0.70
2022-10-28T04:15:11.551Z,0.67
2022-10-28T04:17:41.267Z,0.73
2022-10-28T04:20:11.341Z,0.70
2022-10-28T04:22:40.811Z,0.60
2022-10-28T04:25:10.412Z,0.73
2022-10-28T04:27:39.848Z,1.13
2022-10-28T04:30:11.798Z,0.40
2022-10-28T04:32:42.897Z,0.50
2022-10-28T04:35:14.032Z,0.50
2022-10-28T04:37:43.760Z,0.60
2022-10-28T04:40:13.603Z,1.07
2022-10-28T04:42:43.126Z,0.70
2022-10-28T04:45:12.940Z,0.70
2022-10-28T04:47:42.438Z,0.50
2022-10-28T04:50:11.943Z,0.60
2022-10-28T04:52:41.432Z,0.60
2022-10-28T04:55:11.074Z,0.50
2022-10-28T04:57:40.536Z,0.70
2022-10-28T05:00:11.216Z,0.70
2022-10-28T05:02:45.238Z,0.53
2022-10-28T05:05:11.883Z,0.60
2022-10-28T05:07:41.452Z,0.80
2022-10-28T05:10:12.373Z,0.90
2022-10-28T05:12:45.758Z,0.70
2022-10-28T05:15:17.013Z,0.70
2022-10-28T05:17:48.661Z,0.60
2022-10-28T05:20:20.318Z,0.90
2022-10-28T05:22:55.164Z,0.80
2022-10-28T05:25:25.404Z,0.80
2022-10-28T05:27:54.926Z,0.70
2022-10-28T05:30:24.369Z,0.60
2022-10-28T05:32:55.497Z,0.60
2022-10-28T05:35:24.944Z,0.70
2022-10-28T05:37:54.396Z,0.70
2022-10-28T05:40:23.909Z,0.70
2022-10-28T05:42:53.649Z,0.50
2022-10-28T05:45:23.356Z,1.07
2022-10-28T05:47:53.204Z,0.80
2022-10-28T05:50:23.236Z,0.70
2022-10-28T05:52:56.191Z,0.70
2022-10-28T05:55:29.410Z,0.80
2022-10-28T05:57:59.027Z,0.73
2022-10-28T06:00:29.696Z,0.95
2022-10-28T06:03:12.305Z,1.03
2022-10-28T06:05:47.667Z,0.80
2022-10-28T06:08:17.284Z,0.80
2022-10-28T06:10:53.714Z,0.70
2022-10-28T06:13:24.080Z,1.13
2022-10-28T06:15:57.445Z,1.43
2022-10-28T06:18:26.901Z,1.00
2022-10-28T06:20:58.662Z,1.60
2022-10-28T06:23:28.682Z,1.23
2022-10-28T06:26:01.818Z,1.53
2022-10-28T06:28:32.382Z,1.30
2022-10-28T06:31:04.529Z,0.90
2022-10-28T06:33:34.260Z,1.20
2022-10-28T06:36:04.411Z,0.93
2022-10-28T06:38:33.871Z,1.00
2022-10-28T06:41:03.463Z,1.10
2022-10-28T06:43:32.935Z,0.80
2022-10-28T06:46:04.464Z,1.03
2022-10-28T06:48:35.103Z,1.00
2022-10-28T06:51:04.545Z,1.10
2022-10-28T06:53:34.000Z,1.00
2022-10-28T06:56:03.452Z,0.90
2022-10-28T06:58:32.908Z,0.83
2022-10-28T07:01:07.352Z,0.73
2022-10-28T07:03:36.975Z,0.80
2022-10-28T07:06:06.944Z,1.37
2022-10-28T07:08:36.360Z,0.83
2022-10-28T07:11:05.873Z,0.90
2022-10-28T07:13:35.768Z,0.93
2022-10-28T07:16:05.534Z,0.67
2022-10-28T07:18:34.970Z,0.80
2022-10-28T07:21:04.766Z,0.90
2022-10-28T07:23:34.281Z,1.03
2022-10-28T07:26:03.911Z,1.10
2022-10-28T07:28:33.504Z,1.17
2022-10-28T07:31:06.192Z,1.37
2022-10-28T07:33:35.678Z,1.57
2022-10-28T07:36:06.843Z,1.70
2022-10-28T07:38:36.626Z,1.40
2022-10-28T07:41:11.112Z,1.50
2022-10-28T07:43:41.565Z,1.40
2022-10-28T07:46:11.455Z,1.30
2022-10-28T07:48:40.900Z,0.90
2022-10-28T07:51:14.260Z,0.73
2022-10-28T07:53:44.120Z,0.87
2022-10-28T07:56:14.376Z,0.93
2022-10-28T07:58:45.921Z,1.20
2022-10-28T08:01:18.923Z,0.93
2022-10-28T08:03:48.530Z,0.90
2022-10-28T08:06:21.383Z,0.90
2022-10-28T08:08:55.266Z,1.33
2022-10-28T08:11:25.714Z,0.90
2022-10-28T08:13:56.389Z,0.83
2022-10-28T08:16:27.643Z,1.00
2022-10-28T08:18:57.427Z,0.90
2022-10-28T08:21:27.254Z,1.00
2022-10-28T08:23:56.943Z,0.80
2022-10-28T08:26:26.385Z,0.87
2022-10-28T08:28:55.833Z,0.97
2022-10-28T08:31:25.350Z,0.73
2022-10-28T08:33:55.166Z,0.80
2022-10-28T08:36:24.627Z,0.70
2022-10-28T08:38:54.071Z,0.97
2022-10-28T08:41:31.042Z,0.73
2022-10-28T08:44:26.540Z,0.73
2022-10-28T08:47:33.601Z,1.40
2022-10-28T08:50:07.656Z,0.90
2022-10-28T08:52:56.828Z,0.83
2022-10-28T08:55:40.035Z,1.17
2022-10-28T08:58:33.153Z,1.13
2022-10-28T09:01:05.067Z,1.30
2022-10-28T09:03:41.913Z,1.57
2022-10-28T09:06:12.901Z,1.80
2022-10-28T09:08:46.363Z,1.70
2022-10-28T09:11:42.600Z,1.43
2022-10-28T09:14:48.325Z,1.20
2022-10-28T09:17:30.391Z,1.43
2022-10-28T09:20:04.442Z,0.90
2022-10-28T09:22:56.828Z,1.03
2022-10-28T09:25:34.432Z,1.00
2022-10-28T09:28:11.182Z,1.50
2022-10-28T09:30:56.794Z,1.60
2022-10-28T09:33:52.227Z,1.27
2022-10-28T09:36:26.278Z,1.33
2022-10-28T09:38:59.537Z,1.60
2022-10-28T09:41:41.636Z,1.67
2022-10-28T09:44:21.642Z,1.13
2022-10-28T09:46:55.710Z,1.07
2022-10-28T09:49:33.487Z,1.13
2022-10-28T09:52:13.872Z,1.07
2022-10-28T09:54:51.749Z,1.30
2022-10-28T09:57:23.622Z,1.40
2022-10-28T09:59:53.466Z,1.50
2022-10-28T10:02:33.674Z,1.50
2022-10-28T10:05:04.558Z,1.13
2022-10-28T10:07:41.872Z,1.43
2022-10-28T10:10:18.879Z,1.50
2022-10-28T10:12:52.734Z,1.10
2022-10-28T10:15:35.874Z,1.87
2022-10-28T10:18:09.483Z,1.60
2022-10-28T10:20:58.554Z,1.20
2022-10-28T10:26:16.578Z,1.90
2022-10-28T10:28:52.583Z,1.60
2022-10-28T10:31:29.895Z,1.40
2022-10-28T10:34:00.278Z,1.30
2022-10-28T10:36:31.589Z,0.80
2022-10-28T10:39:04.516Z,1.10
2022-10-28T10:41:45.282Z,1.20
2022-10-28T10:44:36.198Z,0.83
2022-10-28T10:47:10.266Z,1.00
2022-10-28T10:49:39.984Z,1.00
2022-10-28T10:52:20.145Z,1.10
2022-10-28T10:55:05.793Z,1.20
2022-10-28T10:57:36.297Z,1.03
2022-10-28T11:00:06.677Z,0.90
2022-10-28T11:02:40.179Z,1.20
2022-10-28T11:05:12.154Z,0.80
2022-10-28T11:07:47.791Z,0.93
2022-10-28T11:10:32.937Z,1.00
2022-10-28T11:13:06.996Z,1.20
2022-10-28T11:15:36.461Z,1.80
2022-10-28T11:18:20.447Z,1.40
2022-10-28T11:21:19.831Z,1.23
2022-10-28T11:24:22.383Z,1.13
2022-10-28T11:27:08.256Z,1.40
2022-10-28T11:29:38.028Z,1.20
2022-10-28T11:32:32.335Z,0.90
2022-10-28T11:35:23.792Z,0.90
2022-10-28T11:37:57.857Z,1.30
2022-10-28T11:40:46.666Z,1.03
2022-10-28T11:43:32.387Z,1.23
2022-10-28T11:46:27.027Z,0.90
2022-10-28T11:49:12.535Z,1.30
2022-10-28T11:52:03.164Z,1.27
2022-10-28T11:55:16.914Z,1.60
2022-10-28T11:57:59.756Z,1.40
2022-10-28T12:01:14.124Z,1.33
2022-10-28T12:04:07.905Z,1.40
2022-10-28T12:07:05.557Z,0.90
2022-10-28T12:10:22.150Z,1.10
2022-10-28T12:13:23.203Z,0.90
2022-10-28T12:15:59.820Z,0.90
2022-10-28T12:18:39.467Z,1.20
2022-10-28T12:21:39.003Z,1.17
2022-10-28T12:24:18.464Z,0.90
2022-10-28T12:26:57.988Z,0.70
2022-10-28T12:29:41.265Z,0.90
2022-10-28T12:32:18.198Z,1.10
2022-10-28T12:34:58.056Z,1.10
2022-10-28T12:37:43.379Z,1.10
2022-10-28T12:40:23.289Z,0.90
2022-10-28T12:43:03.174Z,0.80
2022-10-28T12:45:34.533Z,0.77
2022-10-28T12:48:17.524Z,1.00
2022-10-28T12:51:07.797Z,1.17
2022-10-28T12:53:56.196Z,1.00
2022-10-28T12:56:45.205Z,0.97
2022-10-28T12:59:34.008Z,0.90
2022-10-28T13:02:08.114Z,0.77
2022-10-28T13:04:39.213Z,0.80
2022-10-28T13:07:34.466Z,0.90
2022-10-28T13:10:20.508Z,0.93
2022-10-28T13:13:12.580Z,1.10
2022-10-28T13:16:08.851Z,1.20
2022-10-28T13:19:22.371Z,1.17
2022-10-28T13:25:10.230Z,1.27
2022-10-28T13:27:40.264Z,0.93
2022-10-28T13:30:21.128Z,1.23
2022-10-28T13:33:03.716Z,0.70
2022-10-28T13:35:34.174Z,0.97
2022-10-28T13:38:06.204Z,0.80
2022-10-28T13:40:43.142Z,1.27
2022-10-28T13:43:42.936Z,0.90
2022-10-28T13:46:12.407Z,1.30
2022-10-28T13:48:48.627Z,1.20
2022-10-28T13:51:22.675Z,1.00
2022-10-28T13:53:57.005Z,0.77
2022-10-28T13:56:39.702Z,1.07
2022-10-28T13:59:25.434Z,0.90
2022-10-28T14:02:07.539Z,0.90
2022-10-28T14:04:37.921Z,0.80
2022-10-28T14:07:14.703Z,1.07
2022-10-28T14:09:45.589Z,0.77
2022-10-28T14:12:28.466Z,1.10
2022-10-28T14:15:20.699Z,0.60
2022-10-28T14:18:16.153Z,0.70
2022-10-28T14:20:48.633Z,0.80
2022-10-28T14:23:39.351Z,1.00
2022-10-28T14:26:08.973Z,1.33
2022-10-28T14:28:43.023Z,1.00
2022-10-28T14:31:18.739Z,1.07
2022-10-28T14:33:58.365Z,1.30
2022-10-28T14:36:54.976Z,0.80
2022-10-28T14:40:01.138Z,0.80
2022-10-28T14:42:38.160Z,0.90
2022-10-28T14:45:39.569Z,0.63
2022-10-28T14:48:37.763Z,0.80
2022-10-28T14:51:11.831Z,0.70
2022-10-28T14:53:44.377Z,0.50
2022-10-28T14:56:32.139Z,0.60
2022-10-28T14:59:27.009Z,0.50
2022-10-28T15:02:13.063Z,0.70
2022-10-28T15:04:46.056Z,0.70
2022-10-28T15:07:21.492Z,0.60
2022-10-28T15:09:53.721Z,0.73
2022-10-28T15:12:28.570Z,0.50
2022-10-28T15:14:59.178Z,0.70
2022-10-28T15:17:32.218Z,0.60
2022-10-28T15:20:04.463Z,0.60
2022-10-28T15:22:35.036Z,0.70
2022-10-28T15:25:09.176Z,0.63
2022-10-28T15:27:41.429Z,0.50
2022-10-28T15:30:22.471Z,0.80
2022-10-28T15:32:54.030Z,0.40
2022-10-28T15:35:34.016Z,0.80
2022-10-28T15:38:16.393Z,0.87
2022-10-28T15:40:45.849Z,0.77
2022-10-28T15:43:31.466Z,1.10
2022-10-28T15:46:17.153Z,0.77
2022-10-28T15:48:46.671Z,0.60
2022-10-28T15:51:19.535Z,0.70
2022-10-28T15:53:54.235Z,0.70
2022-10-28T15:56:27.499Z,0.67
2022-10-28T15:59:22.688Z,0.80
2022-10-28T16:01:54.500Z,0.70
2022-10-28T16:04:28.651Z,0.90
2022-10-28T16:07:05.427Z,0.90
2022-10-28T16:09:40.153Z,0.77
2022-10-28T16:12:20.576Z,0.60
2022-10-28T16:15:02.648Z,0.67
2022-10-28T16:17:36.129Z,0.90
2022-10-28T16:20:23.838Z,0.75
2022-10-28T16:22:54.133Z,0.97
2022-10-28T16:25:24.831Z,1.00
2022-10-28T16:27:55.096Z,0.90
2022-10-28T16:30:24.655Z,1.20
2022-10-28T16:32:54.363Z,1.17
2022-10-28T16:35:26.547Z,1.00
2022-10-28T16:37:56.105Z,1.30
2022-10-28T16:42:58.302Z,1.00
2022-10-28T16:45:27.839Z,1.70
2022-10-28T16:47:57.692Z,1.67
2022-10-28T16:50:27.328Z,0.90
2022-10-28T16:52:56.795Z,1.10
2022-10-28T16:55:27.511Z,0.97
2022-10-28T16:57:57.430Z,0.80
2022-10-28T17:00:27.173Z,0.60
2022-10-28T17:02:56.617Z,1.00
2022-10-28T17:05:26.239Z,0.70
2022-10-28T17:07:56.365Z,0.80
2022-10-28T17:10:27.212Z,0.80
2022-10-28T17:12:57.559Z,0.80
2022-10-28T17:15:27.116Z,0.80
2022-10-28T17:17:57.946Z,1.10
2022-10-28T17:20:27.414Z,0.70
2022-10-28T17:22:58.231Z,1.90
2022-10-28T17:25:28.527Z,2.10
2022-10-28T17:27:58.290Z,2.20
2022-10-28T17:30:28.334Z,1.63
2022-10-28T17:32:57.771Z,1.50
2022-10-28T17:35:27.524Z,1.97
2022-10-28T17:37:57.853Z,2.03
2022-10-28T17:40:27.489Z,1.53
2022-10-28T17:42:59.579Z,1.43
2022-10-28T17:45:29.318Z,1.47
2022-10-28T17:48:00.617Z,2.20
2022-10-28T17:50:30.114Z,2.70
2022-10-28T17:52:59.539Z,3.90
2022-10-28T17:55:29.181Z,4.40
2022-10-28T17:57:59.993Z,5.10
2022-10-28T18:00:30.123Z,5.30
2022-10-28T18:02:59.642Z,5.03
2022-10-28T18:05:29.096Z,4.43
2022-10-28T18:07:58.544Z,3.70
2022-10-28T18:10:28.022Z,3.50
2022-10-28T18:12:57.829Z,2.73
2022-10-28T18:15:27.672Z,3.37
2022-10-28T18:17:57.119Z,5.50
2022-10-28T18:20:26.601Z,4.40
2022-10-28T18:22:56.472Z,3.90
2022-10-28T18:25:26.197Z,3.43
2022-10-28T18:27:55.655Z,2.87
2022-10-28T18:30:26.800Z,2.40
2022-10-28T18:32:56.818Z,2.20
2022-10-28T18:35:26.369Z,1.60
2022-10-28T18:37:56.521Z,1.43
2022-10-28T18:40:26.281Z,1.13
2022-10-28T18:42:55.725Z,1.10
2022-10-28T18:45:25.199Z,1.40
2022-10-28T18:47:54.972Z,0.87
2022-10-28T18:50:25.665Z,1.30
2022-10-28T18:52:55.516Z,1.10
2022-10-28T18:55:25.286Z,0.97
2022-10-28T18:57:54.899Z,0.93
2022-10-28T19:00:24.445Z,0.93
2022-10-28T19:05:23.725Z,1.00
2022-10-28T19:07:53.609Z,0.83
2022-10-28T19:10:23.207Z,0.77
2022-10-28T19:12:53.151Z,0.70
2022-10-28T19:15:22.921Z,0.80
2022-10-28T19:17:54.860Z,0.70
2022-10-28T19:20:25.191Z,0.57
2022-10-28T19:22:55.021Z,0.67
2022-10-28T19:25:24.686Z,0.80
2022-10-28T19:27:54.123Z,1.10
2022-10-28T19:30:23.588Z,0.80
2022-10-28T19:32:53.553Z,0.90
2022-10-28T19:35:23.257Z,0.90
2022-10-28T19:37:54.733Z,0.80
2022-10-28T19:40:24.210Z,1.10
2022-10-28T19:42:56.761Z,1.13
2022-10-28T19:45:26.288Z,1.20
2022-10-28T19:47:56.116Z,1.30
2022-10-28T19:50:25.972Z,1.33
2022-10-28T19:52:55.415Z,1.37
2022-10-28T19:55:24.876Z,1.70
2022-10-28T19:57:54.721Z,1.63
2022-10-28T20:00:24.361Z,1.80
2022-10-28T20:02:53.792Z,1.60
2022-10-28T20:05:23.280Z,1.30
2022-10-28T20:07:54.356Z,1.13
2022-10-28T20:10:24.024Z,1.30
2022-10-28T20:12:53.809Z,1.47
2022-10-28T20:15:23.619Z,1.20
2022-10-28T20:17:53.329Z,1.40
2022-10-28T20:20:22.791Z,1.27
2022-10-28T20:22:52.240Z,1.20
2022-10-28T20:25:21.704Z,1.10
2022-10-28T20:27:51.541Z,1.00
2022-10-28T20:30:21.039Z,0.83
2022-10-28T20:32:55.533Z,1.10
2022-10-28T20:35:21.663Z,0.90
2022-10-28T20:37:54.969Z,0.80
2022-10-28T20:40:24.585Z,0.93
2022-10-28T20:42:54.427Z,1.17
2022-10-28T20:45:24.061Z,0.90
2022-10-28T20:47:54.883Z,0.90
2022-10-28T20:50:24.335Z,1.10
2022-10-28T20:52:54.109Z,0.97
2022-10-28T20:55:23.707Z,1.00
2022-10-28T20:57:53.166Z,0.87
2022-10-28T21:00:22.639Z,1.10
2022-10-28T21:02:55.777Z,0.80
2022-10-28T21:05:25.764Z,0.90
2022-10-28T21:07:55.697Z,1.00
2022-10-28T21:10:25.456Z,0.77
2022-10-28T21:12:55.895Z,0.90
2022-10-28T21:15:25.342Z,1.00
2022-10-28T21:17:55.095Z,0.83
2022-10-28T21:20:24.826Z,0.90
2022-10-28T21:22:54.719Z,0.80
2022-10-28T21:25:24.470Z,1.10
2022-10-28T21:27:54.158Z,1.03
2022-10-28T21:30:23.706Z,0.80
2022-10-28T21:32:54.147Z,1.00
2022-10-28T21:35:24.509Z,1.13
2022-10-28T21:37:56.322Z,1.10
2022-10-28T21:40:25.977Z,0.90
2022-10-28T21:42:55.436Z,1.10
2022-10-28T21:45:25.763Z,0.80
2022-10-28T21:47:58.945Z,1.30
2022-10-28T21:50:28.677Z,0.90
2022-10-28T21:52:58.189Z,0.77
2022-10-28T21:55:41.983Z,1.17
2022-10-28T21:57:58.891Z,1.00
2022-10-28T22:00:28.354Z,0.90
2022-10-28T22:02:57.894Z,1.23
2022-10-28T22:05:27.432Z,0.90
2022-10-28T22:07:57.254Z,1.13
2022-10-28T22:10:26.778Z,0.80
2022-10-28T22:12:57.266Z,0.90
2022-10-28T22:15:26.777Z,1.00
2022-10-28T22:17:56.601Z,0.90
2022-10-28T22:20:26.499Z,0.87
2022-10-28T22:22:56.519Z,0.87
2022-10-28T22:25:26.207Z,0.90
2022-10-28T22:27:55.650Z,0.83
2022-10-28T22:30:25.098Z,0.87
2022-10-28T22:32:54.896Z,0.80
2022-10-28T22:35:24.577Z,1.00
2022-10-28T22:37:54.243Z,0.70
2022-10-28T22:40:24.021Z,0.90
2022-10-28T22:42:53.636Z,0.97
2022-10-28T22:45:23.095Z,0.90
2022-10-28T22:47:52.906Z,0.80
2022-10-28T22:50:22.674Z,0.80
2022-10-28T22:52:53.487Z,0.90
2022-10-28T22:55:22.947Z,0.90
2022-10-28T22:57:54.175Z,0.87
2022-10-28T23:00:23.965Z,0.83
2022-10-28T23:02:53.966Z,0.80
2022-10-28T23:05:24.284Z,0.77
2022-10-28T23:07:55.462Z,0.90
2022-10-28T23:10:24.931Z,0.80
2022-10-28T23:12:59.141Z,1.10
2022-10-28T23:15:30.008Z,1.10
2022-10-28T23:17:59.644Z,0.90
2022-10-28T23:20:30.321Z,0.87
2022-10-28T23:22:59.836Z,0.80
2022-10-28T23:25:29.290Z,0.77
2022-10-28T23:27:59.136Z,1.00
2022-10-28T23:30:28.634Z,0.80
2022-10-28T23:32:59.620Z,0.80
2022-10-28T23:35:29.068Z,0.53
2022-10-28T23:38:00.695Z,0.70
2022-10-28T23:40:30.155Z,0.80
2022-10-28T23:42:59.610Z,0.90
2022-10-28T23:45:29.060Z,0.70
2022-10-28T23:47:58.504Z,0.77
2022-10-28T23:50:28.059Z,1.20
2022-10-28T23:52:57.845Z,0.90
2022-10-28T23:55:27.605Z,0.70
2022-10-28T23:58:00.008Z,0.80
